sensor_id;sensor_type;location;lat;lon;timestamp;P1;P2;P0
44933;PMS3003;30667;43.614;1.442;2023-11-18T00:00:23;32.25;28.00;20.75
44933;PMS3003;30667;43.614;1.442;2023-11-18T00:02:49;31.25;28.25;17.75
44933;PMS3003;30667;43.614;1.442;2023-11-18T00:05:15;29.60;28.40;17.80
44933;PMS3003;30667;43.614;1.442;2023-11-18T00:07:40;29.25;25.50;17.00
44933;PMS3003;30667;43.614;1.442;2023-11-18T00:10:06;31.75;27.00;19.50
44933;PMS3003;30667;43.614;1.442;2023-11-18T00:12:33;30.00;26.80;18.80
44933;PMS3003;30667;43.614;1.442;2023-11-18T00:15:00;29.80;27.60;17.00
44933;PMS3003;30667;43.614;1.442;2023-11-18T00:17:28;25.80;24.20;16.00
44933;PMS3003;30667;43.614;1.442;2023-11-18T00:19:54;28.00;23.20;16.00
44933;PMS3003;30667;43.614;1.442;2023-11-18T00:22:20;23.25;22.00;15.25
44933;PMS3003;30667;43.614;1.442;2023-11-18T00:24:45;24.00;22.75;15.00
44933;PMS3003;30667;43.614;1.442;2023-11-18T00:27:11;22.50;21.25;14.50
44933;PMS3003;30667;43.614;1.442;2023-11-18T00:29:36;26.75;24.50;16.00
44933;PMS3003;30667;43.614;1.442;2023-11-18T00:32:03;23.20;19.40;12.40
44933;PMS3003;30667;43.614;1.442;2023-11-18T00:34:29;24.20;21.80;13.80
44933;PMS3003;30667;43.614;1.442;2023-11-18T00:36:55;23.75;21.00;14.00
44933;PMS3003;30667;43.614;1.442;2023-11-18T00:39:22;25.00;22.00;15.00
44933;PMS3003;30667;43.614;1.442;2023-11-18T00:41:48;22.60;19.00;13.80
44933;PMS3003;30667;43.614;1.442;2023-11-18T00:44:13;21.50;20.00;14.00
44933;PMS3003;30667;43.614;1.442;2023-11-18T00:46:39;21.00;20.00;12.00
44933;PMS3003;30667;43.614;1.442;2023-11-18T00:49:05;23.75;20.75;13.75
44933;PMS3003;30667;43.614;1.442;2023-11-18T00:51:30;21.25;19.25;12.00
44933;PMS3003;30667;43.614;1.442;2023-11-18T00:53:56;17.60;17.20;10.80
44933;PMS3003;30667;43.614;1.442;2023-11-18T00:56:21;20.75;19.25;11.00
44933;PMS3003;30667;43.614;1.442;2023-11-18T00:58:47;22.50;20.00;13.25
44933;PMS3003;30667;43.614;1.442;2023-11-18T01:01:13;16.60;16.60;11.00
44933;PMS3003;30667;43.614;1.442;2023-11-18T01:03:43;19.80;19.00;11.80
44933;PMS3003;30667;43.614;1.442;2023-11-18T01:06:09;23.00;20.40;12.00
44933;PMS3003;30667;43.614;1.442;2023-11-18T01:08:34;22.50;20.75;13.50
44933;PMS3003;30667;43.614;1.442;2023-11-18T01:10:59;20.75;20.75;12.50
44933;PMS3003;30667;43.614;1.442;2023-11-18T01:13:25;23.75;21.25;14.00
44933;PMS3003;30667;43.614;1.442;2023-11-18T01:15:51;21.80;17.60;12.00
44933;PMS3003;30667;43.614;1.442;2023-11-18T01:18:17;19.25;19.00;12.00
44933;PMS3003;30667;43.614;1.442;2023-11-18T01:20:42;22.00;19.50;12.00
44933;PMS3003;30667;43.614;1.442;2023-11-18T01:23:08;24.00;20.00;14.75
44933;PMS3003;30667;43.614;1.442;2023-11-18T01:25:34;19.75;19.00;12.00
44933;PMS3003;30667;43.614;1.442;2023-11-18T01:27:59;17.75;17.00;12.00
44933;PMS3003;30667;43.614;1.442;2023-11-18T01:30:25;19.00;18.50;11.25
44933;PMS3003;30667;43.614;1.442;2023-11-18T01:32:51;20.20;16.40;11.20
44933;PMS3003;30667;43.614;1.442;2023-11-18T01:35:17;20.75;20.00;12.00
44933;PMS3003;30667;43.614;1.442;2023-11-18T01:37:42;19.75;17.25;11.00
44933;PMS3003;30667;43.614;1.442;2023-11-18T01:40:09;17.00;15.00;10.00
44933;PMS3003;30667;43.614;1.442;2023-11-18T01:42:38;16.20;14.40;8.00
44933;PMS3003;30667;43.614;1.442;2023-11-18T01:45:06;17.00;15.80;8.20
44933;PMS3003;30667;43.614;1.442;2023-11-18T01:47:39;16.80;15.80;10.00
44933;PMS3003;30667;43.614;1.442;2023-11-18T01:50:06;19.00;17.00;10.60
44933;PMS3003;30667;43.614;1.442;2023-11-18T01:52:35;16.20;16.20;10.40
44933;PMS3003;30667;43.614;1.442;2023-11-18T01:55:01;18.80;16.00;11.00
44933;PMS3003;30667;43.614;1.442;2023-11-18T01:57:31;15.20;13.60;8.60
44933;PMS3003;30667;43.614;1.442;2023-11-18T02:00:00;18.20;17.60;10.40
44933;PMS3003;30667;43.614;1.442;2023-11-18T02:02:31;20.00;15.80;10.60
44933;PMS3003;30667;43.614;1.442;2023-11-18T02:04:57;17.80;15.40;10.20
44933;PMS3003;30667;43.614;1.442;2023-11-18T02:07:31;18.60;15.80;9.00
44933;PMS3003;30667;43.614;1.442;2023-11-18T02:09:58;16.00;15.80;9.80
44933;PMS3003;30667;43.614;1.442;2023-11-18T02:12:36;18.00;17.40;11.00
44933;PMS3003;30667;43.614;1.442;2023-11-18T02:15:13;19.00;17.40;10.00
44933;PMS3003;30667;43.614;1.442;2023-11-18T02:17:40;18.60;16.40;8.40
44933;PMS3003;30667;43.614;1.442;2023-11-18T02:20:07;15.20;12.00;8.80
44933;PMS3003;30667;43.614;1.442;2023-11-18T02:22:40;17.60;16.00;10.00
44933;PMS3003;30667;43.614;1.442;2023-11-18T02:25:07;12.40;12.20;7.00
44933;PMS3003;30667;43.614;1.442;2023-11-18T02:27:36;14.20;13.80;8.80
44933;PMS3003;30667;43.614;1.442;2023-11-18T02:30:02;16.60;14.60;9.60
44933;PMS3003;30667;43.614;1.442;2023-11-18T02:32:36;13.80;13.80;9.40
44933;PMS3003;30667;43.614;1.442;2023-11-18T02:37:51;16.00;16.00;7.80
44933;PMS3003;30667;43.614;1.442;2023-11-18T02:40:20;15.00;14.00;8.80
44933;PMS3003;30667;43.614;1.442;2023-11-18T02:42:55;15.20;13.20;7.20
44933;PMS3003;30667;43.614;1.442;2023-11-18T02:45:24;12.40;12.40;7.20
44933;PMS3003;30667;43.614;1.442;2023-11-18T02:47:50;13.40;13.00;8.80
44933;PMS3003;30667;43.614;1.442;2023-11-18T02:50:16;13.80;13.80;8.60
44933;PMS3003;30667;43.614;1.442;2023-11-18T02:52:44;15.40;13.80;8.20
44933;PMS3003;30667;43.614;1.442;2023-11-18T02:55:09;18.00;15.00;10.00
44933;PMS3003;30667;43.614;1.442;2023-11-18T02:57:36;13.00;12.60;7.00
44933;PMS3003;30667;43.614;1.442;2023-11-18T03:00:02;14.00;13.00;7.00
44933;PMS3003;30667;43.614;1.442;2023-11-18T03:02:29;14.80;14.40;8.80
44933;PMS3003;30667;43.614;1.442;2023-11-18T03:04:59;15.80;13.20;8.00
44933;PMS3003;30667;43.614;1.442;2023-11-18T03:07:25;16.20;14.40;8.80
44933;PMS3003;30667;43.614;1.442;2023-11-18T03:09:52;22.60;19.80;11.00
44933;PMS3003;30667;43.614;1.442;2023-11-18T03:12:21;19.00;17.20;11.00
44933;PMS3003;30667;43.614;1.442;2023-11-18T03:14:47;25.25;21.25;14.50
44933;PMS3003;30667;43.614;1.442;2023-11-18T03:17:13;24.80;21.60;15.80
44933;PMS3003;30667;43.614;1.442;2023-11-18T03:19:38;28.75;26.00;16.00
44933;PMS3003;30667;43.614;1.442;2023-11-18T03:22:04;36.00;26.75;18.75
44933;PMS3003;30667;43.614;1.442;2023-11-18T03:24:29;27.25;25.00;18.00
44933;PMS3003;30667;43.614;1.442;2023-11-18T03:26:55;28.00;26.50;18.00
44933;PMS3003;30667;43.614;1.442;2023-11-18T03:29:21;29.00;27.60;16.60
44933;PMS3003;30667;43.614;1.442;2023-11-18T03:31:46;33.25;26.50;18.25
44933;PMS3003;30667;43.614;1.442;2023-11-18T03:34:14;33.60;25.00;17.40
44933;PMS3003;30667;43.614;1.442;2023-11-18T03:36:40;31.00;27.40;18.00
44933;PMS3003;30667;43.614;1.442;2023-11-18T03:39:05;32.50;30.50;19.50
44933;PMS3003;30667;43.614;1.442;2023-11-18T03:41:31;31.75;28.25;19.00
44933;PMS3003;30667;43.614;1.442;2023-11-18T03:43:57;32.50;28.75;20.00
44933;PMS3003;30667;43.614;1.442;2023-11-18T03:46:22;28.75;26.00;17.75
44933;PMS3003;30667;43.614;1.442;2023-11-18T03:48:47;25.25;24.00;16.00
44933;PMS3003;30667;43.614;1.442;2023-11-18T03:51:13;26.50;25.50;18.00
44933;PMS3003;30667;43.614;1.442;2023-11-18T03:53:41;30.00;27.00;18.20
44933;PMS3003;30667;43.614;1.442;2023-11-18T03:56:07;28.25;25.75;18.00
44933;PMS3003;30667;43.614;1.442;2023-11-18T03:58:33;31.00;25.80;19.00
44933;PMS3003;30667;43.614;1.442;2023-11-18T04:00:59;25.40;22.80;16.00
44933;PMS3003;30667;43.614;1.442;2023-11-18T04:03:26;28.80;25.40;17.40
44933;PMS3003;30667;43.614;1.442;2023-11-18T04:05:51;24.25;23.50;17.00
44933;PMS3003;30667;43.614;1.442;2023-11-18T04:08:17;28.25;25.25;16.00
44933;PMS3003;30667;43.614;1.442;2023-11-18T04:10:42;28.75;23.75;16.50
44933;PMS3003;30667;43.614;1.442;2023-11-18T04:13:07;27.00;23.75;18.00
44933;PMS3003;30667;43.614;1.442;2023-11-18T04:15:33;30.25;24.00;16.00
44933;PMS3003;30667;43.614;1.442;2023-11-18T04:18:00;30.60;25.20;16.00
44933;PMS3003;30667;43.614;1.442;2023-11-18T04:20:25;29.50;27.50;18.00
44933;PMS3003;30667;43.614;1.442;2023-11-18T04:22:51;27.25;26.25;17.75
44933;PMS3003;30667;43.614;1.442;2023-11-18T04:25:16;33.75;27.00;19.00
44933;PMS3003;30667;43.614;1.442;2023-11-18T04:27:41;30.50;28.75;18.75
44933;PMS3003;30667;43.614;1.442;2023-11-18T04:30:07;29.00;26.25;19.00
44933;PMS3003;30667;43.614;1.442;2023-11-18T04:32:37;28.00;24.40;17.60
44933;PMS3003;30667;43.614;1.442;2023-11-18T04:35:03;30.50;27.25;18.25
44933;PMS3003;30667;43.614;1.442;2023-11-18T04:37:36;29.20;26.40;17.80
44933;PMS3003;30667;43.614;1.442;2023-11-18T04:40:02;29.20;28.00;19.40
44933;PMS3003;30667;43.614;1.442;2023-11-18T04:42:28;30.40;29.00;20.00
44933;PMS3003;30667;43.614;1.442;2023-11-18T04:44:55;35.00;32.40;19.00
44933;PMS3003;30667;43.614;1.442;2023-11-18T04:47:21;32.40;29.80;19.00
44933;PMS3003;30667;43.614;1.442;2023-11-18T04:49:46;35.00;29.00;20.75
44933;PMS3003;30667;43.614;1.442;2023-11-18T04:52:12;34.75;31.25;20.25
44933;PMS3003;30667;43.614;1.442;2023-11-18T04:54:37;31.75;27.00;19.00
44933;PMS3003;30667;43.614;1.442;2023-11-18T04:57:02;29.50;27.50;17.50
44933;PMS3003;30667;43.614;1.442;2023-11-18T04:59:28;30.25;27.50;18.50
44933;PMS3003;30667;43.614;1.442;2023-11-18T05:01:55;29.60;27.00;19.40
44933;PMS3003;30667;43.614;1.442;2023-11-18T05:04:21;30.50;24.75;18.25
44933;PMS3003;30667;43.614;1.442;2023-11-18T05:06:46;29.75;24.00;18.00
44933;PMS3003;30667;43.614;1.442;2023-11-18T05:09:12;33.75;31.75;20.00
44933;PMS3003;30667;43.614;1.442;2023-11-18T05:11:37;33.25;30.00;19.00
44933;PMS3003;30667;43.614;1.442;2023-11-18T05:14:03;29.20;24.80;17.00
44933;PMS3003;30667;43.614;1.442;2023-11-18T05:16:29;28.00;25.75;18.00
44933;PMS3003;30667;43.614;1.442;2023-11-18T05:18:55;27.20;25.60;17.80
44933;PMS3003;30667;43.614;1.442;2023-11-18T05:21:20;27.50;25.25;17.50
44933;PMS3003;30667;43.614;1.442;2023-11-18T05:23:46;29.25;25.50;17.75
44933;PMS3003;30667;43.614;1.442;2023-11-18T05:26:12;26.75;25.00;18.00
44933;PMS3003;30667;43.614;1.442;2023-11-18T05:28:37;24.25;22.50;15.00
44933;PMS3003;30667;43.614;1.442;2023-11-18T05:31:03;25.80;22.60;15.00
44933;PMS3003;30667;43.614;1.442;2023-11-18T05:33:30;24.80;22.40;14.20
44933;PMS3003;30667;43.614;1.442;2023-11-18T05:35:56;23.20;20.40;14.00
44933;PMS3003;30667;43.614;1.442;2023-11-18T05:38:22;25.00;20.80;14.00
44933;PMS3003;30667;43.614;1.442;2023-11-18T05:40:49;23.20;19.40;13.40
44933;PMS3003;30667;43.614;1.442;2023-11-18T05:43:27;22.60;19.80;13.20
44933;PMS3003;30667;43.614;1.442;2023-11-18T05:46:01;21.00;20.00;13.40
44933;PMS3003;30667;43.614;1.442;2023-11-18T05:49:02;21.80;20.60;12.80
44933;PMS3003;30667;43.614;1.442;2023-11-18T05:51:32;22.40;21.20;14.20
44933;PMS3003;30667;43.614;1.442;2023-11-18T05:53:57;21.25;19.75;13.25
44933;PMS3003;30667;43.614;1.442;2023-11-18T05:56:23;23.75;21.50;13.50
44933;PMS3003;30667;43.614;1.442;2023-11-18T05:58:49;22.20;19.80;14.00
44933;PMS3003;30667;43.614;1.442;2023-11-18T06:01:15;25.80;20.00;13.60
44933;PMS3003;30667;43.614;1.442;2023-11-18T06:03:42;21.80;19.40;13.60
44933;PMS3003;30667;43.614;1.442;2023-11-18T06:06:08;20.00;20.00;14.20
44933;PMS3003;30667;43.614;1.442;2023-11-18T06:08:35;22.00;19.60;12.60
44933;PMS3003;30667;43.614;1.442;2023-11-18T06:11:06;23.00;21.40;12.80
44933;PMS3003;30667;43.614;1.442;2023-11-18T06:13:47;18.40;18.40;12.80
44933;PMS3003;30667;43.614;1.442;2023-11-18T06:16:23;23.20;20.20;11.20
44933;PMS3003;30667;43.614;1.442;2023-11-18T06:18:51;20.00;19.20;12.80
44933;PMS3003;30667;43.614;1.442;2023-11-18T06:21:22;22.20;20.00;13.00
44933;PMS3003;30667;43.614;1.442;2023-11-18T06:23:50;19.60;19.00;13.20
44933;PMS3003;30667;43.614;1.442;2023-11-18T06:26:16;19.00;18.00;10.60
44933;PMS3003;30667;43.614;1.442;2023-11-18T06:28:43;22.60;18.80;11.20
44933;PMS3003;30667;43.614;1.442;2023-11-18T06:31:09;20.00;20.00;12.40
44933;PMS3003;30667;43.614;1.442;2023-11-18T06:33:39;18.20;18.00;11.00
44933;PMS3003;30667;43.614;1.442;2023-11-18T06:36:08;20.00;19.80;12.20
44933;PMS3003;30667;43.614;1.442;2023-11-18T06:38:34;18.00;17.40;11.00
44933;PMS3003;30667;43.614;1.442;2023-11-18T06:41:00;21.50;20.75;13.00
44933;PMS3003;30667;43.614;1.442;2023-11-18T06:43:27;19.40;19.00;12.80
44933;PMS3003;30667;43.614;1.442;2023-11-18T06:46:01;18.60;18.00;12.40
44933;PMS3003;30667;43.614;1.442;2023-11-18T06:48:26;18.40;17.60;10.00
44933;PMS3003;30667;43.614;1.442;2023-11-18T06:50:52;16.25;15.00;10.00
44933;PMS3003;30667;43.614;1.442;2023-11-18T06:53:17;16.00;14.00;9.00
44933;PMS3003;30667;43.614;1.442;2023-11-18T06:55:42;18.75;16.75;10.00
44933;PMS3003;30667;43.614;1.442;2023-11-18T06:58:08;14.50;14.00;10.00
44933;PMS3003;30667;43.614;1.442;2023-11-18T07:00:35;16.00;13.80;8.20
44933;PMS3003;30667;43.614;1.442;2023-11-18T07:03:01;16.60;14.80;9.20
44933;PMS3003;30667;43.614;1.442;2023-11-18T07:05:27;13.75;12.00;7.25
44933;PMS3003;30667;43.614;1.442;2023-11-18T07:07:53;14.20;14.00;7.00
44933;PMS3003;30667;43.614;1.442;2023-11-18T07:10:19;14.50;13.50;9.00
44933;PMS3003;30667;43.614;1.442;2023-11-18T07:12:46;16.80;14.60;7.60
44933;PMS3003;30667;43.614;1.442;2023-11-18T07:15:13;14.80;13.80;8.40
44933;PMS3003;30667;43.614;1.442;2023-11-18T07:17:39;14.00;13.20;8.20
44933;PMS3003;30667;43.614;1.442;2023-11-18T07:20:05;18.00;14.75;9.75
44933;PMS3003;30667;43.614;1.442;2023-11-18T07:22:31;16.80;14.80;9.00
44933;PMS3003;30667;43.614;1.442;2023-11-18T07:24:56;17.75;14.75;9.00
44933;PMS3003;30667;43.614;1.442;2023-11-18T07:27:22;17.50;15.75;10.00
44933;PMS3003;30667;43.614;1.442;2023-11-18T07:29:47;16.25;16.25;9.50
44933;PMS3003;30667;43.614;1.442;2023-11-18T07:32:13;15.00;13.50;9.50
44933;PMS3003;30667;43.614;1.442;2023-11-18T07:34:38;16.00;14.50;9.00
44933;PMS3003;30667;43.614;1.442;2023-11-18T07:37:06;15.80;14.40;9.20
44933;PMS3003;30667;43.614;1.442;2023-11-18T07:39:33;18.40;16.00;10.00
44933;PMS3003;30667;43.614;1.442;2023-11-18T07:42:20;14.60;14.20;9.00
44933;PMS3003;30667;43.614;1.442;2023-11-18T07:44:45;21.50;18.50;11.25
44933;PMS3003;30667;43.614;1.442;2023-11-18T07:47:12;16.60;14.00;9.40
44933;PMS3003;30667;43.614;1.442;2023-11-18T07:49:39;19.00;16.40;9.60
44933;PMS3003;30667;43.614;1.442;2023-11-18T07:52:05;18.00;17.00;10.20
44933;PMS3003;30667;43.614;1.442;2023-11-18T07:54:31;17.00;17.00;10.00
44933;PMS3003;30667;43.614;1.442;2023-11-18T07:56:56;17.00;15.50;10.00
44933;PMS3003;30667;43.614;1.442;2023-11-18T07:59:22;17.00;16.75;10.00
44933;PMS3003;30667;43.614;1.442;2023-11-18T08:01:49;18.20;16.20;9.60
44933;PMS3003;30667;43.614;1.442;2023-11-18T08:04:15;18.20;17.40;10.00
44933;PMS3003;30667;43.614;1.442;2023-11-18T08:06:41;15.20;15.00;9.20
44933;PMS3003;30667;43.614;1.442;2023-11-18T08:09:08;17.80;15.80;10.00
44933;PMS3003;30667;43.614;1.442;2023-11-18T08:11:39;20.60;18.00;10.40
44933;PMS3003;30667;43.614;1.442;2023-11-18T08:14:06;18.60;17.60;11.00
44933;PMS3003;30667;43.614;1.442;2023-11-18T08:16:33;20.60;18.80;12.80
44933;PMS3003;30667;43.614;1.442;2023-11-18T08:18:58;17.75;17.00;10.00
44933;PMS3003;30667;43.614;1.442;2023-11-18T08:21:24;17.75;16.75;10.75
44933;PMS3003;30667;43.614;1.442;2023-11-18T08:23:49;18.75;17.75;10.00
44933;PMS3003;30667;43.614;1.442;2023-11-18T08:26:15;15.25;14.25;9.50
44933;PMS3003;30667;43.614;1.442;2023-11-18T08:28:40;14.00;11.75;6.00
44933;PMS3003;30667;43.614;1.442;2023-11-18T08:31:08;17.40;14.40;9.20
44933;PMS3003;30667;43.614;1.442;2023-11-18T08:33:34;15.00;15.00;9.00
44933;PMS3003;30667;43.614;1.442;2023-11-18T08:35:59;15.25;15.00;10.00
44933;PMS3003;30667;43.614;1.442;2023-11-18T08:38:27;15.00;15.00;8.80
44933;PMS3003;30667;43.614;1.442;2023-11-18T08:40:53;12.25;11.50;7.00
44933;PMS3003;30667;43.614;1.442;2023-11-18T08:43:20;15.20;14.40;8.60
44933;PMS3003;30667;43.614;1.442;2023-11-18T08:45:46;14.50;11.50;7.00
44933;PMS3003;30667;43.614;1.442;2023-11-18T08:48:12;13.00;11.80;7.00
44933;PMS3003;30667;43.614;1.442;2023-11-18T08:50:38;14.50;14.50;6.50
44933;PMS3003;30667;43.614;1.442;2023-11-18T08:53:08;14.00;13.80;8.20
44933;PMS3003;30667;43.614;1.442;2023-11-18T08:55:34;14.40;11.80;7.00
44933;PMS3003;30667;43.614;1.442;2023-11-18T08:58:12;14.60;13.60;7.80
44933;PMS3003;30667;43.614;1.442;2023-11-18T09:00:45;12.60;10.80;6.00
44933;PMS3003;30667;43.614;1.442;2023-11-18T09:03:18;15.00;12.00;7.20
44933;PMS3003;30667;43.614;1.442;2023-11-18T09:05:52;15.80;14.80;8.60
44933;PMS3003;30667;43.614;1.442;2023-11-18T09:08:25;14.40;13.60;7.00
44933;PMS3003;30667;43.614;1.442;2023-11-18T09:10:54;15.00;13.00;7.80
44933;PMS3003;30667;43.614;1.442;2023-11-18T09:13:21;13.80;13.80;7.20
44933;PMS3003;30667;43.614;1.442;2023-11-18T09:15:54;11.00;11.00;6.00
44933;PMS3003;30667;43.614;1.442;2023-11-18T09:18:21;11.60;11.00;6.80
44933;PMS3003;30667;43.614;1.442;2023-11-18T09:20:47;15.50;14.50;8.25
44933;PMS3003;30667;43.614;1.442;2023-11-18T09:23:12;17.50;17.00;10.75
44933;PMS3003;30667;43.614;1.442;2023-11-18T09:25:40;22.40;20.60;12.00
44933;PMS3003;30667;43.614;1.442;2023-11-18T09:28:06;26.40;23.00;15.00
44933;PMS3003;30667;43.614;1.442;2023-11-18T09:30:35;19.80;18.60;11.00
44933;PMS3003;30667;43.614;1.442;2023-11-18T09:33:03;22.00;19.60;12.00
44933;PMS3003;30667;43.614;1.442;2023-11-18T09:35:39;19.80;17.00;11.00
44933;PMS3003;30667;43.614;1.442;2023-11-18T09:38:05;31.80;31.00;23.20
44933;PMS3003;30667;43.614;1.442;2023-11-18T09:40:31;22.25;21.75;16.00
44933;PMS3003;30667;43.614;1.442;2023-11-18T09:43:02;19.40;19.00;11.60
44933;PMS3003;30667;43.614;1.442;2023-11-18T09:45:34;16.40;16.00;10.00
44933;PMS3003;30667;43.614;1.442;2023-11-18T09:48:01;16.40;16.00;11.00
44933;PMS3003;30667;43.614;1.442;2023-11-18T09:50:32;19.00;16.60;9.20
44933;PMS3003;30667;43.614;1.442;2023-11-18T09:52:58;17.60;16.80;11.40
44933;PMS3003;30667;43.614;1.442;2023-11-18T09:55:38;17.20;16.20;10.80
44933;PMS3003;30667;43.614;1.442;2023-11-18T09:58:15;19.20;16.40;11.00
44933;PMS3003;30667;43.614;1.442;2023-11-18T10:00:44;12.80;12.60;7.00
44933;PMS3003;30667;43.614;1.442;2023-11-18T10:03:16;12.80;11.00;7.00
44933;PMS3003;30667;43.614;1.442;2023-11-18T10:05:41;12.60;11.40;6.00
44933;PMS3003;30667;43.614;1.442;2023-11-18T10:08:09;12.40;12.00;6.20
44933;PMS3003;30667;43.614;1.442;2023-11-18T10:10:35;9.00;8.00;4.25
44933;PMS3003;30667;43.614;1.442;2023-11-18T10:13:01;7.00;6.80;3.00
44933;PMS3003;30667;43.614;1.442;2023-11-18T10:15:29;8.00;7.00;4.80
44933;PMS3003;30667;43.614;1.442;2023-11-18T10:17:56;10.20;7.00;2.40
44933;PMS3003;30667;43.614;1.442;2023-11-18T10:20:45;7.20;6.60;2.20
44933;PMS3003;30667;43.614;1.442;2023-11-18T10:23:12;4.80;4.80;2.00
44933;PMS3003;30667;43.614;1.442;2023-11-18T10:25:50;4.80;3.20;1.00
44933;PMS3003;30667;43.614;1.442;2023-11-18T10:28:24;6.60;6.00;2.00
44933;PMS3003;30667;43.614;1.442;2023-11-18T10:30:54;3.00;3.00;1.00
44933;PMS3003;30667;43.614;1.442;2023-11-18T10:33:23;3.40;3.40;1.00
44933;PMS3003;30667;43.614;1.442;2023-11-18T10:35:55;5.60;4.20;1.00
44933;PMS3003;30667;43.614;1.442;2023-11-18T10:38:21;11.00;11.00;7.00
44933;PMS3003;30667;43.614;1.442;2023-11-18T10:40:52;5.40;4.00;2.00
44933;PMS3003;30667;43.614;1.442;2023-11-18T10:43:20;2.20;2.20;1.00
44933;PMS3003;30667;43.614;1.442;2023-11-18T10:46:11;3.00;3.00;1.00
44933;PMS3003;30667;43.614;1.442;2023-11-18T10:48:39;2.20;2.00;0.80
44933;PMS3003;30667;43.614;1.442;2023-11-18T10:51:06;2.80;2.00;0.80
44933;PMS3003;30667;43.614;1.442;2023-11-18T10:53:32;3.80;3.20;1.00
44933;PMS3003;30667;43.614;1.442;2023-11-18T10:55:58;2.00;2.00;0.00
44933;PMS3003;30667;43.614;1.442;2023-11-18T10:58:23;1.75;1.75;0.00
44933;PMS3003;30667;43.614;1.442;2023-11-18T11:00:50;2.40;2.20;0.20
44933;PMS3003;30667;43.614;1.442;2023-11-18T11:03:21;2.40;2.00;0.20
44933;PMS3003;30667;43.614;1.442;2023-11-18T11:05:49;3.80;3.00;1.00
44933;PMS3003;30667;43.614;1.442;2023-11-18T11:08:15;4.20;3.00;1.00
44933;PMS3003;30667;43.614;1.442;2023-11-18T11:10:41;3.40;2.00;1.00
44933;PMS3003;30667;43.614;1.442;2023-11-18T11:13:08;3.20;3.00;1.00
44933;PMS3003;30667;43.614;1.442;2023-11-18T11:15:40;3.00;3.00;1.00
44933;PMS3003;30667;43.614;1.442;2023-11-18T11:18:32;3.20;3.20;1.00
44933;PMS3003;30667;43.614;1.442;2023-11-18T11:21:36;3.80;3.80;1.00
44933;PMS3003;30667;43.614;1.442;2023-11-18T11:24:00;3.20;2.80;1.00
44933;PMS3003;30667;43.614;1.442;2023-11-18T11:30:03;6.80;4.40;2.00
44933;PMS3003;30667;43.614;1.442;2023-11-18T11:32:50;3.40;3.00;1.00
44933;PMS3003;30667;43.614;1.442;2023-11-18T11:35:22;4.80;3.60;1.20
44933;PMS3003;30667;43.614;1.442;2023-11-18T11:37:49;6.00;4.00;0.80
44933;PMS3003;30667;43.614;1.442;2023-11-18T11:40:18;5.20;5.20;2.00
44933;PMS3003;30667;43.614;1.442;2023-11-18T11:42:49;4.00;4.00;1.00
44933;PMS3003;30667;43.614;1.442;2023-11-18T11:45:21;3.00;3.00;1.00
44933;PMS3003;30667;43.614;1.442;2023-11-18T11:47:54;6.00;6.00;1.40
44933;PMS3003;30667;43.614;1.442;2023-11-18T11:50:43;6.00;3.80;1.20
44933;PMS3003;30667;43.614;1.442;2023-11-18T11:53:24;5.60;4.00;1.60
44933;PMS3003;30667;43.614;1.442;2023-11-18T11:56:10;6.80;6.80;2.80
44933;PMS3003;30667;43.614;1.442;2023-11-18T11:58:38;7.00;6.20;2.00
44933;PMS3003;30667;43.614;1.442;2023-11-18T12:01:27;5.60;5.60;2.80
44933;PMS3003;30667;43.614;1.442;2023-11-18T12:04:02;7.00;6.00;2.00
44933;PMS3003;30667;43.614;1.442;2023-11-18T12:06:37;6.60;6.00;2.00
44933;PMS3003;30667;43.614;1.442;2023-11-18T12:09:08;6.40;5.80;2.00
44933;PMS3003;30667;43.614;1.442;2023-11-18T12:11:37;8.00;8.00;3.00
44933;PMS3003;30667;43.614;1.442;2023-11-18T12:14:11;5.20;5.20;1.20
44933;PMS3003;30667;43.614;1.442;2023-11-18T12:17:07;4.40;3.20;1.00
44933;PMS3003;30667;43.614;1.442;2023-11-18T12:19:51;6.40;6.00;2.20
44933;PMS3003;30667;43.614;1.442;2023-11-18T12:22:23;4.00;4.00;1.20
44933;PMS3003;30667;43.614;1.442;2023-11-18T12:35:23;4.20;3.00;1.00
44933;PMS3003;30667;43.614;1.442;2023-11-18T12:40:57;6.40;6.00;2.00
44933;PMS3003;30667;43.614;1.442;2023-11-18T12:43:36;4.00;4.00;1.60
44933;PMS3003;30667;43.614;1.442;2023-11-18T12:49:22;4.00;4.00;1.60
44933;PMS3003;30667;43.614;1.442;2023-11-18T12:51:54;5.20;5.20;2.00
44933;PMS3003;30667;43.614;1.442;2023-11-18T12:54:21;4.00;4.00;1.80
44933;PMS3003;30667;43.614;1.442;2023-11-18T12:56:50;5.60;5.00;2.20
44933;PMS3003;30667;43.614;1.442;2023-11-18T12:59:20;7.60;7.00;2.00
44933;PMS3003;30667;43.614;1.442;2023-11-18T13:01:46;4.40;4.00;2.00
44933;PMS3003;30667;43.614;1.442;2023-11-18T13:04:21;4.80;4.00;2.00
44933;PMS3003;30667;43.614;1.442;2023-11-18T13:06:54;3.80;3.80;2.00
44933;PMS3003;30667;43.614;1.442;2023-11-18T13:09:24;4.00;3.00;1.00
44933;PMS3003;30667;43.614;1.442;2023-11-18T13:12:18;3.00;3.00;1.00
44933;PMS3003;30667;43.614;1.442;2023-11-18T13:15:04;3.20;3.00;1.00
44933;PMS3003;30667;43.614;1.442;2023-11-18T13:17:33;6.60;4.00;1.60
44933;PMS3003;30667;43.614;1.442;2023-11-18T13:20:10;3.50;3.00;0.50
44933;PMS3003;30667;43.614;1.442;2023-11-18T13:22:38;4.40;4.00;1.00
44933;PMS3003;30667;43.614;1.442;2023-11-18T13:25:04;4.00;3.60;1.00
44933;PMS3003;30667;43.614;1.442;2023-11-18T13:27:30;4.40;3.00;1.00
44933;PMS3003;30667;43.614;1.442;2023-11-18T13:30:00;4.60;3.00;1.00
44933;PMS3003;30667;43.614;1.442;2023-11-18T13:32:26;4.80;4.00;1.00
44933;PMS3003;30667;43.614;1.442;2023-11-18T13:34:51;3.25;3.00;0.75
44933;PMS3003;30667;43.614;1.442;2023-11-18T13:37:17;4.00;3.50;1.50
44933;PMS3003;30667;43.614;1.442;2023-11-18T13:39:56;3.00;3.00;1.00
44933;PMS3003;30667;43.614;1.442;2023-11-18T13:42:25;5.00;4.00;1.00
44933;PMS3003;30667;43.614;1.442;2023-11-18T13:45:05;4.00;4.00;2.00
44933;PMS3003;30667;43.614;1.442;2023-11-18T13:47:40;5.20;4.00;1.00
44933;PMS3003;30667;43.614;1.442;2023-11-18T13:50:07;4.00;4.00;1.20
44933;PMS3003;30667;43.614;1.442;2023-11-18T13:52:36;4.00;3.00;1.00
44933;PMS3003;30667;43.614;1.442;2023-11-18T13:55:04;4.00;3.80;1.20
44933;PMS3003;30667;43.614;1.442;2023-11-18T13:57:31;4.00;4.00;2.00
44933;PMS3003;30667;43.614;1.442;2023-11-18T13:59:57;4.00;4.00;2.00
44933;PMS3003;30667;43.614;1.442;2023-11-18T14:02:24;6.60;5.20;1.60
44933;PMS3003;30667;43.614;1.442;2023-11-18T14:04:49;6.25;5.25;2.00
44933;PMS3003;30667;43.614;1.442;2023-11-18T14:07:15;5.00;4.00;2.00
44933;PMS3003;30667;43.614;1.442;2023-11-18T14:09:42;4.20;3.80;1.00
44933;PMS3003;30667;43.614;1.442;2023-11-18T14:12:11;3.00;3.00;1.00
44933;PMS3003;30667;43.614;1.442;2023-11-18T14:14:38;4.00;4.00;2.00
44933;PMS3003;30667;43.614;1.442;2023-11-18T14:17:04;6.25;5.00;2.00
44933;PMS3003;30667;43.614;1.442;2023-11-18T14:19:31;5.00;5.00;1.80
44933;PMS3003;30667;43.614;1.442;2023-11-18T14:22:00;4.00;3.50;1.50
44933;PMS3003;30667;43.614;1.442;2023-11-18T14:24:26;5.80;5.80;2.00
44933;PMS3003;30667;43.614;1.442;2023-11-18T14:26:55;5.00;4.00;2.00
44933;PMS3003;30667;43.614;1.442;2023-11-18T14:29:21;4.80;4.00;1.00